sensor_id;sensor_type;location;lat;lon;timestamp;pressure;altitude;pressure_sealevel;temperature;humidity
60319;BME280;46163;52.306;5.634;2023-04-06T00:01:40;101717.97;;;15.71;50.48
60319;BME280;46163;52.306;5.634;2023-04-06T00:04:06;101715.28;;;15.71;50.58
60319;BME280;46163;52.306;5.634;2023-04-06T00:06:32;101688.09;;;15.54;50.41
60319;BME280;46163;52.306;5.634;2023-04-06T00:08:59;101714.91;;;15.67;50.51
60319;BME280;46163;52.306;5.634;2023-04-06T00:11:25;101706.03;;;15.67;50.36
60319;BME280;46163;52.306;5.634;2023-04-06T00:13:50;101699.25;;;15.64;50.57
60319;BME280;46163;52.306;5.634;2023-04-06T00:16:16;101696.16;;;15.61;50.33
60319;BME280;46163;52.306;5.634;2023-04-06T00:18:42;101713.66;;;15.63;50.56
60319;BME280;46163;52.306;5.634;2023-04-06T00:21:10;101699.66;;;15.61;50.39
60319;BME280;46163;52.306;5.634;2023-04-06T00:23:36;101701.69;;;15.59;50.48
60319;BME280;46163;52.306;5.634;2023-04-06T00:26:01;101684.81;;;15.52;50.38
60319;BME280;46163;52.306;5.634;2023-04-06T00:28:27;101697.38;;;15.58;50.46
60319;BME280;46163;52.306;5.634;2023-04-06T00:30:54;101688.72;;;15.56;50.41
60319;BME280;46163;52.306;5.634;2023-04-06T00:33:21;101681.72;;;15.55;50.43
60319;BME280;46163;52.306;5.634;2023-04-06T00:35:47;101680.03;;;15.54;50.31
60319;BME280;46163;52.306;5.634;2023-04-06T00:38:14;101673.47;;;15.50;50.35
60319;BME280;46163;52.306;5.634;2023-04-06T00:40:40;101675.09;;;15.51;50.28
60319;BME280;46163;52.306;5.634;2023-04-06T00:43:06;101670.56;;;15.51;49.91
60319;BME280;46163;52.306;5.634;2023-04-06T00:45:32;101670.78;;;15.50;50.17
60319;BME280;46163;52.306;5.634;2023-04-06T00:47:58;101664.59;;;15.49;50.23
60319;BME280;46163;52.306;5.634;2023-04-06T00:50:24;101661.50;;;15.46;50.32
60319;BME280;46163;52.306;5.634;2023-04-06T00:52:50;101670.41;;;15.46;50.17
60319;BME280;46163;52.306;5.634;2023-04-06T00:55:15;101658.22;;;15.44;50.27
60319;BME280;46163;52.306;5.634;2023-04-06T00:57:41;101659.03;;;15.44;50.07
60319;BME280;46163;52.306;5.634;2023-04-06T01:00:09;101659.25;;;15.43;50.29
60319;BME280;46163;52.306;5.634;2023-04-06T01:02:37;101646.69;;;15.37;50.29
60319;BME280;46163;52.306;5.634;2023-04-06T01:05:02;101653.28;;;15.41;50.12
60319;BME280;46163;52.306;5.634;2023-04-06T01:07:28;101654.53;;;15.38;50.06
60319;BME280;46163;52.306;5.634;2023-04-06T01:09:54;101649.19;;;15.38;50.23
60319;BME280;46163;52.306;5.634;2023-04-06T01:12:20;101640.31;;;15.38;50.10
60319;BME280;46163;52.306;5.634;2023-04-06T01:14:46;101632.44;;;15.36;50.17
60319;BME280;46163;52.306;5.634;2023-04-06T01:17:11;101642.34;;;15.36;50.08
60319;BME280;46163;52.306;5.634;2023-04-06T01:19:37;101626.69;;;15.33;50.05
60319;BME280;46163;52.306;5.634;2023-04-06T01:22:02;101627.31;;;15.35;50.18
60319;BME280;46163;52.306;5.634;2023-04-06T01:24:28;101626.69;;;15.33;50.25
60319;BME280;46163;52.306;5.634;2023-04-06T01:26:53;101624.25;;;15.31;50.03
60319;BME280;46163;52.306;5.634;2023-04-06T01:29:19;101627.97;;;15.30;49.94
60319;BME280;46163;52.306;5.634;2023-04-06T01:31:44;101619.28;;;15.28;49.99
60319;BME280;46163;52.306;5.634;2023-04-06T01:34:10;101614.13;;;15.26;50.12
60319;BME280;46163;52.306;5.634;2023-04-06T01:36:35;101610.84;;;15.24;50.26
60319;BME280;46163;52.306;5.634;2023-04-06T01:39:01;101611.06;;;15.23;50.09
60319;BME280;46163;52.306;5.634;2023-04-06T01:41:26;101611.88;;;15.23;49.95
60319;BME280;46163;52.306;5.634;2023-04-06T01:43:52;101608.38;;;15.23;50.10
60319;BME280;46163;52.306;5.634;2023-04-06T01:46:20;101608.59;;;15.21;49.98
60319;BME280;46163;52.306;5.634;2023-04-06T01:48:45;101593.75;;;15.19;49.92
60319;BME280;46163;52.306;5.634;2023-04-06T01:51:11;101600.75;;;15.20;50.17
60319;BME280;46163;52.306;5.634;2023-04-06T01:53:36;101598.28;;;15.18;50.11
60319;BME280;46163;52.306;5.634;2023-04-06T01:56:02;101604.69;;;15.17;50.23
60319;BME280;46163;52.306;5.634;2023-04-06T01:58:27;101591.50;;;15.16;50.00
60319;BME280;46163;52.306;5.634;2023-04-06T02:00:53;101586.13;;;15.16;49.87
60319;BME280;46163;52.306;5.634;2023-04-06T02:03:18;101579.16;;;15.08;49.93
60319;BME280;46163;52.306;5.634;2023-04-06T02:05:46;101586.56;;;15.13;50.12
60319;BME280;46163;52.306;5.634;2023-04-06T02:08:11;101579.75;;;15.10;50.01
60319;BME280;46163;52.306;5.634;2023-04-06T02:10:37;101578.72;;;15.11;49.89
60319;BME280;46163;52.306;5.634;2023-04-06T02:13:02;101581.38;;;15.11;49.80
60319;BME280;46163;52.306;5.634;2023-04-06T02:15:28;101577.88;;;15.11;49.91
60319;BME280;46163;52.306;5.634;2023-04-06T02:17:53;101573.56;;;15.10;49.93
60319;BME280;46163;52.306;5.634;2023-04-06T02:20:19;101559.38;;;15.03;50.07
60319;BME280;46163;52.306;5.634;2023-04-06T02:22:44;101573.78;;;15.08;50.04
60319;BME280;46163;52.306;5.634;2023-04-06T02:25:10;101569.47;;;15.07;49.97
60319;BME280;46163;52.306;5.634;2023-04-06T02:27:36;101569.47;;;15.07;50.04
60319;BME280;46163;52.306;5.634;2023-04-06T02:30:03;101570.50;;;15.06;49.82
60319;BME280;46163;52.306;5.634;2023-04-06T02:32:29;101565.34;;;15.05;49.93
60319;BME280;46163;52.306;5.634;2023-04-06T02:35:00;101561.03;;;15.04;49.87
60319;BME280;46163;52.306;5.634;2023-04-06T02:37:26;101561.03;;;15.04;49.94
60319;BME280;46163;52.306;5.634;2023-04-06T02:39:51;101555.03;;;15.02;49.73
60319;BME280;46163;52.306;5.634;2023-04-06T02:42:17;101567.41;;;15.03;49.80
60319;BME280;46163;52.306;5.634;2023-04-06T02:44:43;101557.94;;;15.00;49.74
60319;BME280;46163;52.306;5.634;2023-04-06T02:47:08;101551.53;;;15.01;49.96
60319;BME280;46163;52.306;5.634;2023-04-06T02:49:34;101552.56;;;15.00;49.87
60319;BME280;46163;52.306;5.634;2023-04-06T02:51:59;101550.94;;;14.99;49.67
60319;BME280;46163;52.306;5.634;2023-04-06T02:54:25;101547.44;;;14.98;49.85
60319;BME280;46163;52.306;5.634;2023-04-06T02:56:50;101550.13;;;14.98;49.81
60319;BME280;46163;52.306;5.634;2023-04-06T02:59:18;101541.47;;;14.96;49.97
60319;BME280;46163;52.306;5.634;2023-04-06T03:01:44;101537.97;;;14.96;49.79
60319;BME280;46163;52.306;5.634;2023-04-06T03:04:09;101530.75;;;14.96;49.97
60319;BME280;46163;52.306;5.634;2023-04-06T03:06:36;101540.66;;;14.96;49.97
60319;BME280;46163;52.306;5.634;2023-04-06T03:09:01;101540.88;;;14.94;49.80
60319;BME280;46163;52.306;5.634;2023-04-06T03:11:27;101535.69;;;14.93;50.01
60319;BME280;46163;52.306;5.634;2023-04-06T03:13:53;101537.34;;;14.94;49.76
60319;BME280;46163;52.306;5.634;2023-04-06T03:16:18;101538.19;;;14.94;49.92
60319;BME280;46163;52.306;5.634;2023-04-06T03:18:46;101529.94;;;14.89;49.53
60319;BME280;46163;52.306;5.634;2023-04-06T03:21:15;101533.44;;;14.90;49.70
60319;BME280;46163;52.306;5.634;2023-04-06T03:23:41;101523.75;;;14.89;49.63
60319;BME280;46163;52.306;5.634;2023-04-06T03:26:07;101528.91;;;14.90;49.88
60319;BME280;46163;52.306;5.634;2023-04-06T03:28:32;101528.09;;;14.90;49.79
60319;BME280;46163;52.306;5.634;2023-04-06T03:30:58;101515.31;;;14.85;49.47
60319;BME280;46163;52.306;5.634;2023-04-06T03:33:24;101523.53;;;14.90;49.70
60319;BME280;46163;52.306;5.634;2023-04-06T03:35:52;101522.72;;;14.90;49.80
60319;BME280;46163;52.306;5.634;2023-04-06T03:38:17;101513.06;;;14.82;49.71
60319;BME280;46163;52.306;5.634;2023-04-06T03:40:43;101506.66;;;14.90;49.91
60319;BME280;46163;52.306;5.634;2023-04-06T03:43:08;101512.00;;;14.90;49.72
60319;BME280;46163;52.306;5.634;2023-04-06T03:45:34;101505.59;;;14.91;49.84
60319;BME280;46163;52.306;5.634;2023-04-06T03:48:00;101505.38;;;14.92;49.83
60319;BME280;46163;52.306;5.634;2023-04-06T03:50:25;101501.47;;;14.95;49.75
60319;BME280;46163;52.306;5.634;2023-04-06T03:52:51;101498.56;;;15.03;49.75
60319;BME280;46163;52.306;5.634;2023-04-06T03:55:16;101498.50;;;15.10;49.55
60319;BME280;46163;52.306;5.634;2023-04-06T03:57:42;101495.56;;;15.18;49.27
60319;BME280;46163;52.306;5.634;2023-04-06T04:00:08;101501.28;;;15.28;49.04
60319;BME280;46163;52.306;5.634;2023-04-06T04:02:34;101503.31;;;15.39;49.04
60319;BME280;46163;52.306;5.634;2023-04-06T04:04:59;101499.91;;;15.50;48.94
60319;BME280;46163;52.306;5.634;2023-04-06T04:07:25;101481.59;;;15.47;48.74
60319;BME280;46163;52.306;5.634;2023-04-06T04:09:51;101498.59;;;15.66;48.53
60319;BME280;46163;52.306;5.634;2023-04-06T04:12:17;101496.88;;;15.72;48.31
60319;BME280;46163;52.306;5.634;2023-04-06T04:14:42;101492.69;;;15.82;48.17
60319;BME280;46163;52.306;5.634;2023-04-06T04:17:09;101507.25;;;15.93;48.07
60319;BME280;46163;52.306;5.634;2023-04-06T04:19:34;101492.56;;;15.96;47.92
60319;BME280;46163;52.306;5.634;2023-04-06T04:22:00;101502.38;;;16.08;47.58
60319;BME280;46163;52.306;5.634;2023-04-06T04:24:25;101503.97;;;16.16;47.63
60319;BME280;46163;52.306;5.634;2023-04-06T04:26:51;101499.31;;;16.23;47.38
60319;BME280;46163;52.306;5.634;2023-04-06T04:29:17;101498.44;;;16.29;47.27
60319;BME280;46163;52.306;5.634;2023-04-06T04:31:46;101489.75;;;16.34;47.23
60319;BME280;46163;52.306;5.634;2023-04-06T04:34:11;101495.84;;;16.41;47.07
60319;BME280;46163;52.306;5.634;2023-04-06T04:36:43;101493.78;;;16.43;46.82
60319;BME280;46163;52.306;5.634;2023-04-06T04:39:08;101496.16;;;16.51;46.70
60319;BME280;46163;52.306;5.634;2023-04-06T04:41:34;101493.84;;;16.55;46.83
60319;BME280;46163;52.306;5.634;2023-04-06T04:44:00;101497.50;;;16.60;46.76
60319;BME280;46163;52.306;5.634;2023-04-06T04:46:26;101500.31;;;16.65;46.61
60319;BME280;46163;52.306;5.634;2023-04-06T04:48:51;101495.97;;;16.71;46.47
60319;BME280;46163;52.306;5.634;2023-04-06T04:51:17;101480.69;;;16.65;46.42
60319;BME280;46163;52.306;5.634;2023-04-06T04:53:42;101494.25;;;16.77;46.17
60319;BME280;46163;52.306;5.634;2023-04-06T04:56:08;101496.25;;;16.81;46.22
60319;BME280;46163;52.306;5.634;2023-04-06T04:58:33;101485.03;;;16.84;46.28
60319;BME280;46163;52.306;5.634;2023-04-06T05:00:59;101488.91;;;16.88;46.21
60319;BME280;46163;52.306;5.634;2023-04-06T05:03:26;101486.59;;;16.92;45.93
60319;BME280;46163;52.306;5.634;2023-04-06T05:05:52;101479.72;;;16.96;45.74
60319;BME280;46163;52.306;5.634;2023-04-06T05:08:17;101478.44;;;16.99;45.80
60319;BME280;46163;52.306;5.634;2023-04-06T05:10:43;101477.16;;;17.01;45.69
60319;BME280;46163;52.306;5.634;2023-04-06T05:13:13;101477.78;;;17.03;45.67
60319;BME280;46163;52.306;5.634;2023-04-06T05:15:39;101474.84;;;17.05;45.64
60319;BME280;46163;52.306;5.634;2023-04-06T05:18:06;101469.25;;;17.06;45.64
60319;BME280;46163;52.306;5.634;2023-04-06T05:20:31;101468.19;;;17.07;45.57
60319;BME280;46163;52.306;5.634;2023-04-06T05:22:57;101473.72;;;17.12;45.70
60319;BME280;46163;52.306;5.634;2023-04-06T05:25:22;101473.47;;;17.14;45.52
60319;BME280;46163;52.306;5.634;2023-04-06T05:27:48;101474.66;;;17.18;45.56
60319;BME280;46163;52.306;5.634;2023-04-06T05:30:16;101469.84;;;17.20;45.55
60319;BME280;46163;52.306;5.634;2023-04-06T05:32:42;101466.72;;;17.23;45.68
60319;BME280;46163;52.306;5.634;2023-04-06T05:35:09;101470.00;;;17.25;45.78
60319;BME280;46163;52.306;5.634;2023-04-06T05:37:35;101467.91;;;17.27;45.93
60319;BME280;46163;52.306;5.634;2023-04-06T05:40:00;101457.38;;;17.26;46.10
60319;BME280;46163;52.306;5.634;2023-04-06T05:42:26;101464.53;;;17.32;46.44
60319;BME280;46163;52.306;5.634;2023-04-06T05:44:52;101465.13;;;17.34;46.49
60319;BME280;46163;52.306;5.634;2023-04-06T05:47:17;101465.69;;;17.36;46.48
60319;BME280;46163;52.306;5.634;2023-04-06T05:49:43;101459.06;;;17.38;46.48
60319;BME280;46163;52.306;5.634;2023-04-06T05:52:09;101458.34;;;17.43;46.14
60319;BME280;46163;52.306;5.634;2023-04-06T05:54:36;101465.13;;;17.45;46.46
60319;BME280;46163;52.306;5.634;2023-04-06T05:57:03;101454.16;;;17.47;45.94
60319;BME280;46163;52.306;5.634;2023-04-06T05:59:30;101447.97;;;17.46;45.70
60319;BME280;46163;52.306;5.634;2023-04-06T06:01:56;101445.63;;;17.50;45.42
60319;BME280;46163;52.306;5.634;2023-04-06T06:04:21;101449.13;;;17.50;45.36
60319;BME280;46163;52.306;5.634;2023-04-06T06:06:47;101451.34;;;17.53;45.40
60319;BME280;46163;52.306;5.634;2023-04-06T06:09:13;101443.06;;;17.55;45.55
60319;BME280;46163;52.306;5.634;2023-04-06T06:11:38;101442.22;;;17.55;45.52
60319;BME280;46163;52.306;5.634;2023-04-06T06:14:04;101447.84;;;17.53;45.99
60319;BME280;46163;52.306;5.634;2023-04-06T06:16:30;101447.25;;;17.51;45.89
60319;BME280;46163;52.306;5.634;2023-04-06T06:18:55;101437.78;;;17.48;45.55
60319;BME280;46163;52.306;5.634;2023-04-06T06:21:21;101431.19;;;17.44;45.79
60319;BME280;46163;52.306;5.634;2023-04-06T06:23:46;101445.97;;;17.53;45.37
60319;BME280;46163;52.306;5.634;2023-04-06T06:26:14;101447.00;;;17.52;45.04
60319;BME280;46163;52.306;5.634;2023-04-06T06:28:42;101434.03;;;17.49;45.02
60319;BME280;46163;52.306;5.634;2023-04-06T06:31:08;101447.84;;;17.53;44.43
60319;BME280;46163;52.306;5.634;2023-04-06T06:33:33;101444.31;;;17.52;44.59
60319;BME280;46163;52.306;5.634;2023-04-06T06:35:59;101445.97;;;17.53;44.37
60319;BME280;46163;52.306;5.634;2023-04-06T06:38:25;101447.59;;;17.55;44.41
60319;BME280;46163;52.306;5.634;2023-04-06T06:40:50;101454.66;;;17.56;43.93
60319;BME280;46163;52.306;5.634;2023-04-06T06:43:16;101447.38;;;17.56;44.07
60319;BME280;46163;52.306;5.634;2023-04-06T06:45:41;101446.09;;;17.59;43.72
60319;BME280;46163;52.306;5.634;2023-04-06T06:48:07;101440.72;;;17.59;43.61
60319;BME280;46163;52.306;5.634;2023-04-06T06:50:33;101443.97;;;17.61;43.95
60319;BME280;46163;52.306;5.634;2023-04-06T06:52:58;101439.41;;;17.61;44.19
60319;BME280;46163;52.306;5.634;2023-04-06T06:55:24;101433.78;;;17.63;44.14
60319;BME280;46163;52.306;5.634;2023-04-06T06:57:50;101434.16;;;17.66;44.17
60319;BME280;46163;52.306;5.634;2023-04-06T07:00:16;101432.88;;;17.69;44.33
60319;BME280;46163;52.306;5.634;2023-04-06T07:02:42;101428.91;;;17.71;44.50
60319;BME280;46163;52.306;5.634;2023-04-06T07:05:07;101433.28;;;17.72;44.24
60319;BME280;46163;52.306;5.634;2023-04-06T07:07:33;101435.50;;;17.75;44.17
60319;BME280;46163;52.306;5.634;2023-04-06T07:09:59;101421.78;;;17.77;44.44
60319;BME280;46163;52.306;5.634;2023-04-06T07:12:25;101422.38;;;17.79;44.38
60319;BME280;46163;52.306;5.634;2023-04-06T07:14:50;101421.31;;;17.80;44.48
60319;BME280;46163;52.306;5.634;2023-04-06T07:17:16;101428.94;;;17.83;44.49
60319;BME280;46163;52.306;5.634;2023-04-06T07:19:42;101428.72;;;17.85;44.35
60319;BME280;46163;52.306;5.634;2023-04-06T07:22:08;101428.47;;;17.86;44.36
60319;BME280;46163;52.306;5.634;2023-04-06T07:24:33;101415.81;;;17.87;44.07
60319;BME280;46163;52.306;5.634;2023-04-06T07:27:00;101426.72;;;17.92;44.23
60319;BME280;46163;52.306;5.634;2023-04-06T07:29:29;101425.66;;;17.93;44.03
60319;BME280;46163;52.306;5.634;2023-04-06T07:31:54;101430.22;;;17.92;44.48
60319;BME280;46163;52.306;5.634;2023-04-06T07:34:20;101428.44;;;17.98;43.98
60319;BME280;46163;52.306;5.634;2023-04-06T07:36:46;101429.88;;;18.00;43.99
60319;BME280;46163;52.306;5.634;2023-04-06T07:39:12;101423.91;;;17.98;44.14
60319;BME280;46163;52.306;5.634;2023-04-06T07:41:38;101424.25;;;18.02;44.09
60319;BME280;46163;52.306;5.634;2023-04-06T07:44:04;101432.31;;;18.02;44.32
60319;BME280;46163;52.306;5.634;2023-04-06T07:46:32;101427.75;;;18.02;44.06
60319;BME280;46163;52.306;5.634;2023-04-06T07:48:59;101426.13;;;18.01;44.17
60319;BME280;46163;52.306;5.634;2023-04-06T07:51:25;101426.94;;;18.02;44.21
60319;BME280;46163;52.306;5.634;2023-04-06T07:53:50;101424.50;;;18.00;44.11
60319;BME280;46163;52.306;5.634;2023-04-06T07:56:16;101425.31;;;18.01;44.15
60319;BME280;46163;52.306;5.634;2023-04-06T07:58:42;101424.50;;;18.00;44.16
60319;BME280;46163;52.306;5.634;2023-04-06T08:01:08;101422.63;;;18.01;44.08
60319;BME280;46163;52.306;5.634;2023-04-06T08:03:34;101417.47;;;17.99;44.32
60319;BME280;46163;52.306;5.634;2023-04-06T08:06:00;101423.31;;;17.96;44.35
60319;BME280;46163;52.306;5.634;2023-04-06T08:08:29;101397.91;;;17.80;44.58
60319;BME280;46163;52.306;5.634;2023-04-06T08:10:56;101426.47;;;17.93;44.37
60319;BME280;46163;52.306;5.634;2023-04-06T08:13:21;101422.16;;;17.92;44.44
60319;BME280;46163;52.306;5.634;2023-04-06T08:15:47;101420.28;;;17.93;44.43
60319;BME280;46163;52.306;5.634;2023-04-06T08:18:12;101418.63;;;17.92;44.34
60319;BME280;46163;52.306;5.634;2023-04-06T08:20:39;101417.22;;;17.89;44.18
60319;BME280;46163;52.306;5.634;2023-04-06T08:23:04;101417.22;;;17.89;44.39
60319;BME280;46163;52.306;5.634;2023-04-06T08:25:35;101420.97;;;17.88;44.50
60319;BME280;46163;52.306;5.634;2023-04-06T08:28:01;101429.84;;;17.89;44.44
60319;BME280;46163;52.306;5.634;2023-04-06T08:30:27;101427.78;;;17.91;44.16
60319;BME280;46163;52.306;5.634;2023-04-06T08:32:53;101418.88;;;17.90;44.58
60319;BME280;46163;52.306;5.634;2023-04-06T08:35:18;101417.00;;;17.91;44.43
60319;BME280;46163;52.306;5.634;2023-04-06T08:37:44;101411.94;;;17.94;44.41
60319;BME280;46163;52.306;5.634;2023-04-06T08:40:10;101416.28;;;17.95;44.35
60319;BME280;46163;52.306;5.634;2023-04-06T08:42:40;101415.84;;;17.98;44.53
60319;BME280;46163;52.306;5.634;2023-04-06T08:45:08;101417.22;;;18.01;44.16
60319;BME280;46163;52.306;5.634;2023-04-06T08:47:35;101411.59;;;18.02;44.26
60319;BME280;46163;52.306;5.634;2023-04-06T08:50:04;101417.31;;;18.06;44.37
60319;BME280;46163;52.306;5.634;2023-04-06T08:52:32;101408.78;;;18.09;44.17
60319;BME280;46163;52.306;5.634;2023-04-06T08:54:58;101422.59;;;18.13;44.36
60319;BME280;46163;52.306;5.634;2023-04-06T08:57:24;101415.09;;;18.15;44.21
60319;BME280;46163;52.306;5.634;2023-04-06T08:59:51;101413.00;;;18.17;44.31
60319;BME280;46163;52.306;5.634;2023-04-06T09:02:18;101414.38;;;18.19;44.38
60319;BME280;46163;52.306;5.634;2023-04-06T09:04:52;101414.97;;;18.21;44.18
60319;BME280;46163;52.306;5.634;2023-04-06T09:07:18;101420.34;;;18.21;44.17
60319;BME280;46163;52.306;5.634;2023-04-06T09:09:44;101410.97;;;18.24;44.34
60319;BME280;46163;52.306;5.634;2023-04-06T09:12:30;101421.53;;;18.25;44.04
60319;BME280;46163;52.306;5.634;2023-04-06T09:14:57;101414.84;;;18.28;44.00
60319;BME280;46163;52.306;5.634;2023-04-06T09:17:30;101418.09;;;18.30;44.15
60319;BME280;46163;52.306;5.634;2023-04-06T09:19:59;101404.41;;;18.31;44.31
60319;BME280;46163;52.306;5.634;2023-04-06T09:22:34;101399.81;;;18.32;44.17
60319;BME280;46163;52.306;5.634;2023-04-06T09:25:00;101404.16;;;18.33;43.96
60319;BME280;46163;52.306;5.634;2023-04-06T09:27:33;101402.31;;;18.33;44.16
60319;BME280;46163;52.306;5.634;2023-04-06T09:30:11;101392.47;;;18.27;44.16
60319;BME280;46163;52.306;5.634;2023-04-06T09:32:52;101412.22;;;18.33;44.09
60319;BME280;46163;52.306;5.634;2023-04-06T09:35:19;101409.31;;;18.34;44.06
60319;BME280;46163;52.306;5.634;2023-04-06T09:37:46;101406.84;;;18.33;44.19
60319;BME280;46163;52.306;5.634;2023-04-06T09:40:13;101405.22;;;18.32;44.02
60319;BME280;46163;52.306;5.634;2023-04-06T09:42:44;101407.91;;;18.32;44.24
60319;BME280;46163;52.306;5.634;2023-04-06T09:45:10;101404.63;;;18.30;44.10
60319;BME280;46163;52.306;5.634;2023-04-06T09:47:37;101414.59;;;18.29;44.21
60319;BME280;46163;52.306;5.634;2023-04-06T09:50:03;101411.31;;;18.27;43.96
60319;BME280;46163;52.306;5.634;2023-04-06T09:52:40;101410.50;;;18.27;44.37
60319;BME280;46163;52.306;5.634;2023-04-06T09:55:07;101410.50;;;18.27;43.94
60319;BME280;46163;52.306;5.634;2023-04-06T09:57:57;101425.63;;;18.28;44.19
60319;BME280;46163;52.306;5.634;2023-04-06T10:00:25;101417.53;;;18.28;43.90
60319;BME280;46163;52.306;5.634;2023-04-06T10:05:50;101408.38;;;18.29;43.61
60319;BME280;46163;52.306;5.634;2023-04-06T10:08:19;101406.75;;;18.28;43.73
60319;BME280;46163;52.306;5.634;2023-04-06T10:10:50;101407.81;;;18.27;43.53
60319;BME280;46163;52.306;5.634;2023-04-06T10:13:16;101402.44;;;18.27;43.83
60319;BME280;46163;52.306;5.634;2023-04-06T10:15:44;101404.88;;;18.28;43.81
60319;BME280;46163;52.306;5.634;2023-04-06T10:18:13;101409.22;;;18.29;43.74
60319;BME280;46163;52.306;5.634;2023-04-06T10:23:51;101422.19;;;18.32;43.33
60319;BME280;46163;52.306;5.634;2023-04-06T10:26:20;101422.19;;;18.32;43.36
60319;BME280;46163;52.306;5.634;2023-04-06T10:28:47;101418.47;;;18.33;43.17
60319;BME280;46163;52.306;5.634;2023-04-06T10:31:13;101412.22;;;18.33;43.26
60319;BME280;46163;52.306;5.634;2023-04-06T10:33:41;101425.25;;;18.36;43.41
60319;BME280;46163;52.306;5.634;2023-04-06T10:38:39;101418.91;;;18.42;43.74
60319;BME280;46163;52.306;5.634;2023-04-06T10:41:06;101417.84;;;18.43;43.78
60319;BME280;46163;52.306;5.634;2023-04-06T10:43:36;101419.50;;;18.44;44.12
60319;BME280;46163;52.306;5.634;2023-04-06T10:46:03;101419.00;;;18.47;44.10
60319;BME280;46163;52.306;5.634;2023-04-06T10:48:42;101411.75;;;18.48;44.30
60319;BME280;46163;52.306;5.634;2023-04-06T10:51:13;101415.25;;;18.48;44.36
60319;BME280;46163;52.306;5.634;2023-04-06T10:53:42;101403.19;;;18.51;44.39
60319;BME280;46163;52.306;5.634;2023-04-06T10:56:13;101411.59;;;18.54;44.56
60319;BME280;46163;52.306;5.634;2023-04-06T10:58:44;101407.84;;;18.55;44.47
60319;BME280;46163;52.306;5.634;2023-04-06T11:01:11;101404.09;;;18.56;44.24
60319;BME280;46163;52.306;5.634;2023-04-06T11:03:48;101401.41;;;18.56;44.43
60319;BME280;46163;52.306;5.634;2023-04-06T11:06:24;101408.66;;;18.56;44.18
60319;BME280;46163;52.306;5.634;2023-04-06T11:08:51;101395.94;;;18.51;44.22
60319;BME280;46163;52.306;5.634;2023-04-06T11:11:19;101393.81;;;18.53;44.38
60319;BME280;46163;52.306;5.634;2023-04-06T11:13:55;101395.09;;;18.51;44.43
60319;BME280;46163;52.306;5.634;2023-04-06T11:16:23;101394.03;;;18.52;44.37
60319;BME280;46163;52.306;5.634;2023-04-06T11:18:53;101399.66;;;18.50;44.45
60319;BME280;46163;52.306;5.634;2023-04-06T11:21:30;101409.84;;;18.48;44.74
60319;BME280;46163;52.306;5.634;2023-04-06T11:24:16;101396.63;;;18.47;44.89
60319;BME280;46163;52.306;5.634;2023-04-06T11:29:12;101404.13;;;18.45;44.83
60319;BME280;46163;52.306;5.634;2023-04-06T11:32:02;101400.06;;;18.42;45.23
60319;BME280;46163;52.306;5.634;2023-04-06T11:34:29;101397.00;;;18.39;45.13
60319;BME280;46163;52.306;5.634;2023-04-06T11:39:23;101398.31;;;18.36;45.26
60319;BME280;46163;52.306;5.634;2023-04-06T11:41:50;101402.63;;;18.37;45.36
60319;BME280;46163;52.306;5.634;2023-04-06T11:44:28;101398.56;;;18.34;45.45
60319;BME280;46163;52.306;5.634;2023-04-06T11:46:54;101390.69;;;18.33;45.46
60319;BME280;46163;52.306;5.634;2023-04-06T11:49:21;101400.63;;;18.32;45.59
60319;BME280;46163;52.306;5.634;2023-04-06T11:51:47;101399.25;;;18.30;45.83
60319;BME280;46163;52.306;5.634;2023-04-06T11:54:12;101392.22;;;18.29;45.84
60319;BME280;46163;52.306;5.634;2023-04-06T11:56:38;101398.69;;;18.28;45.53
60319;BME280;46163;52.306;5.634;2023-04-06T11:59:04;101387.91;;;18.28;45.66
60319;BME280;46163;52.306;5.634;2023-04-06T12:01:29;101379.94;;;18.21;45.94
60319;BME280;46163;52.306;5.634;2023-04-06T12:03:55;101386.72;;;18.24;45.69
60319;BME280;46163;52.306;5.634;2023-04-06T12:06:21;101382.06;;;18.19;45.88
60319;BME280;46163;52.306;5.634;2023-04-06T12:08:47;101385.34;;;18.21;45.87
60319;BME280;46163;52.306;5.634;2023-04-06T12:11:13;101387.19;;;18.21;46.01
60319;BME280;46163;52.306;5.634;2023-04-06T12:13:38;101381.25;;;18.19;46.09
60319;BME280;46163;52.306;5.634;2023-04-06T12:16:04;101382.31;;;18.18;45.56
60319;BME280;46163;52.306;5.634;2023-04-06T12:18:31;101375.75;;;18.14;46.13
60319;BME280;46163;52.306;5.634;2023-04-06T12:20:57;101333.28;;;17.80;46.17
60319;BME280;46163;52.306;5.634;2023-04-06T12:23:22;101368.16;;;18.11;46.04
60319;BME280;46163;52.306;5.634;2023-04-06T12:25:48;101381.59;;;18.11;46.28
60319;BME280;46163;52.306;5.634;2023-04-06T12:28:13;101375.41;;;18.10;45.97
60319;BME280;46163;52.306;5.634;2023-04-06T12:30:39;101382.44;;;18.11;45.92
60319;BME280;46163;52.306;5.634;2023-04-06T12:33:06;101379.97;;;18.10;46.32
60319;BME280;46163;52.306;5.634;2023-04-06T12:35:36;101378.91;;;18.11;46.34
60319;BME280;46163;52.306;5.634;2023-04-06T12:38:01;101378.69;;;18.12;46.05
60319;BME280;46163;52.306;5.634;2023-04-06T12:40:27;101375.97;;;18.12;46.22
60319;BME280;46163;52.306;5.634;2023-04-06T12:42:53;101380.56;;;18.12;46.03
60319;BME280;46163;52.306;5.634;2023-04-06T12:45:19;101375.16;;;18.12;46.29
60319;BME280;46163;52.306;5.634;2023-04-06T12:47:45;101369.78;;;18.12;46.13
60319;BME280;46163;52.306;5.634;2023-04-06T12:50:10;101367.91;;;18.12;46.21
60319;BME280;46163;52.306;5.634;2023-04-06T12:52:36;101353.13;;;18.15;46.22
60319;BME280;46163;52.306;5.634;2023-04-06T12:55:03;101359.34;;;18.15;46.01
60319;BME280;46163;52.306;5.634;2023-04-06T12:57:30;101352.09;;;18.16;46.28
60319;BME280;46163;52.306;5.634;2023-04-06T12:59:56;101340.47;;;18.15;45.97
60319;BME280;46163;52.306;5.634;2023-04-06T13:02:25;101348.09;;;18.18;45.83